Sao Jose do Belmonte, Brazil
Current Conditions -  °F | °C
As of 7:00 PM on Monday 20 Oct 2014 (Local Time) from SBJU Reporting Station
Scattered Clouds Scattered Clouds  
Wind Chill: 93°   Ceiling: Unl
Heat Index: 93°   Visibility: 6mi
Dew Point: 61°   Wind: 0mph
Humidity: 34%   Direction: NA
Pressure: 29.88"   Gusts: NA
Location:  7.86°S, 38.76°W
Report Text: SBJU 202200Z 00000KT 9999 SCT020 34/16 Q1012
Loading
Personal Weather Stations






























Interactive Weather Map
Tropical Storm Tracking
New forecast layout! Learn more

10-Day Weather Forecast

Advertisements
Track Severe Weather on mobile